createdAt,value
2018-01-29T00:00:46.157Z,102114.34
2018-01-29T00:03:15.094Z,102117.00
2018-01-29T00:05:42.528Z,102113.45
2018-01-29T00:08:09.972Z,102113.41
2018-01-29T00:10:37.428Z,102102.84
2018-01-29T00:13:04.864Z,102112.53
2018-01-29T00:15:32.333Z,102109.03
2018-01-29T00:17:59.769Z,102112.97
2018-01-29T00:20:27.416Z,102105.40
2018-01-29T00:22:54.876Z,102092.61
2018-01-29T00:25:22.320Z,102094.38
2018-01-29T00:27:49.792Z,102092.66
2018-01-29T00:30:17.233Z,102096.59
2018-01-29T00:32:44.671Z,102097.47
2018-01-29T00:35:12.156Z,102091.73
2018-01-29T00:37:39.596Z,102099.69
2018-01-29T00:40:07.249Z,102097.03
2018-01-29T00:42:34.702Z,102093.50
2018-01-29T00:45:02.138Z,102089.55
2018-01-29T00:47:29.598Z,102090.84
2018-01-29T00:49:57.033Z,102096.59
2018-01-29T00:52:24.901Z,102097.87
2018-01-29T00:54:52.750Z,102098.36
2018-01-29T00:57:20.189Z,102094.77
2018-01-29T00:59:47.651Z,102100.08
2018-01-29T01:02:15.085Z,102096.97
2018-01-29T01:04:42.576Z,102099.64
2018-01-29T01:07:10.212Z,102092.60
2018-01-29T01:09:37.653Z,102091.68
2018-01-29T01:12:05.136Z,102091.67
2018-01-29T01:14:32.568Z,102083.27
2018-01-29T01:17:00.304Z,102082.38
2018-01-29T01:19:28.247Z,102083.75
2018-01-29T01:21:55.716Z,102082.38
2018-01-29T01:24:23.173Z,102087.41
2018-01-29T01:26:50.629Z,102081.19
2018-01-29T01:29:18.397Z,102082.87
2018-01-29T01:31:45.948Z,102083.36
2018-01-29T01:34:13.386Z,102076.67
2018-01-29T01:36:40.855Z,102076.68
2018-01-29T01:39:08.298Z,102081.63
2018-01-29T01:41:35.976Z,102082.48
2018-01-29T01:44:03.421Z,102087.83
2018-01-29T01:46:30.861Z,102082.03
2018-01-29T01:48:58.329Z,102080.30
2018-01-29T01:51:25.765Z,102075.79
2018-01-29T01:53:53.232Z,102074.02
2018-01-29T01:56:20.676Z,102071.81
2018-01-29T01:58:48.116Z,102074.41
2018-01-29T02:01:15.639Z,102074.90
2018-01-29T02:03:43.085Z,102074.02
2018-01-29T02:06:10.544Z,102063.84
2018-01-29T02:08:37.984Z,102064.77
2018-01-29T02:11:05.432Z,102061.63
2018-01-29T02:13:32.900Z,102058.93
2018-01-29T02:16:00.340Z,102051.89
2018-01-29T02:18:28.017Z,102054.06
2018-01-29T02:20:55.467Z,102048.75
2018-01-29T02:23:23.060Z,102049.19
2018-01-29T02:25:50.540Z,102043.44
2018-01-29T02:28:18.012Z,102043.87
2018-01-29T02:30:45.908Z,102037.23
2018-01-29T02:33:13.392Z,102040.77
2018-01-29T02:35:41.235Z,102041.66
2018-01-29T02:38:08.708Z,102034.14
2018-01-29T02:40:36.149Z,102036.36
2018-01-29T02:43:03.609Z,102028.83
2018-01-29T02:45:31.049Z,102028.88
2018-01-29T02:47:58.484Z,102031.12
2018-01-29T02:50:25.978Z,102024.03
2018-01-29T02:52:53.418Z,102025.33
2018-01-29T02:55:21.041Z,102026.66
2018-01-29T02:57:48.489Z,102024.48
2018-01-29T03:00:15.933Z,102019.60
2018-01-29T03:02:43.400Z,102020.08
2018-01-29T03:05:10.841Z,102020.46
2018-01-29T03:07:38.479Z,102020.46
2018-01-29T03:10:05.935Z,102017.36
2018-01-29T03:12:33.369Z,102014.27
2018-01-29T03:15:00.832Z,102001.39
2018-01-29T03:17:28.277Z,101993.43
2018-01-29T03:19:55.966Z,101988.12
2018-01-29T03:22:23.419Z,101985.05
2018-01-29T03:24:50.857Z,101979.27
2018-01-29T03:27:18.312Z,101973.95
2018-01-29T03:29:45.749Z,101971.30
2018-01-29T03:32:13.348Z,101973.48
2018-01-29T03:34:40.780Z,101956.67
2018-01-29T03:37:08.232Z,101954.93
2018-01-29T03:39:35.705Z,101952.24
2018-01-29T03:42:03.145Z,101951.36
2018-01-29T03:44:31.052Z,101942.09
2018-01-29T03:46:58.497Z,101943.43
2018-01-29T03:49:25.929Z,101943.88
2018-01-29T03:51:53.385Z,101937.67
2018-01-29T03:54:20.838Z,101940.33
2018-01-29T03:56:48.626Z,101943.87
2018-01-29T03:59:16.069Z,101952.75
2018-01-29T04:01:43.500Z,101953.62
2018-01-29T04:04:10.959Z,101954.06
2018-01-29T04:06:38.402Z,101951.44
2018-01-29T04:09:05.876Z,101946.09
2018-01-29T04:11:33.325Z,101944.81
2018-01-29T04:14:00.770Z,101945.23
2018-01-29T04:16:28.226Z,101937.72
2018-01-29T04:18:55.677Z,101936.83
2018-01-29T04:21:23.153Z,101935.06
2018-01-29T04:23:50.650Z,101944.80
2018-01-29T04:26:18.099Z,101946.54
2018-01-29T04:28:45.635Z,101943.00
2018-01-29T04:31:13.084Z,101940.81
2018-01-29T04:33:40.788Z,101931.50
2018-01-29T04:36:08.223Z,101926.62
2018-01-29T04:38:35.656Z,101926.17
2018-01-29T04:41:03.117Z,101921.78
2018-01-29T04:43:30.581Z,101915.13
2018-01-29T04:46:02.069Z,101920.00
2018-01-29T04:48:29.513Z,101917.33
2018-01-29T04:50:56.972Z,101922.66
2018-01-29T04:53:24.429Z,101919.98
2018-01-29T04:55:51.864Z,101919.13
2018-01-29T04:58:19.645Z,101915.14
2018-01-29T05:00:47.105Z,101919.54
2018-01-29T05:03:14.541Z,101918.66
2018-01-29T05:05:41.996Z,101914.24
2018-01-29T05:08:09.433Z,101915.59
2018-01-29T05:10:37.249Z,101923.98
2018-01-29T05:13:04.704Z,101918.67
2018-01-29T05:15:32.152Z,101912.02
2018-01-29T05:17:59.616Z,101905.81
2018-01-29T05:20:27.062Z,101904.95
2018-01-29T05:22:54.822Z,101901.39
2018-01-29T05:25:22.264Z,101900.52
2018-01-29T05:27:49.736Z,101896.96
2018-01-29T05:30:17.193Z,101895.20
2018-01-29T05:32:44.645Z,101898.73
2018-01-29T05:35:12.500Z,101903.61
2018-01-29T05:37:41.492Z,101900.52
2018-01-29T05:40:08.929Z,101900.52
2018-01-29T05:42:36.392Z,101900.94
2018-01-29T05:45:03.836Z,101898.75
2018-01-29T05:47:31.543Z,101896.54
2018-01-29T05:49:59.018Z,101900.95
2018-01-29T05:52:26.464Z,101900.50
2018-01-29T05:54:53.922Z,101898.31
2018-01-29T05:57:21.377Z,101908.05
2018-01-29T05:59:48.840Z,101900.06
2018-01-29T06:02:16.277Z,101897.87
2018-01-29T06:04:43.718Z,101896.53
2018-01-29T06:07:11.180Z,101905.39
2018-01-29T06:09:38.968Z,101900.07
2018-01-29T06:12:06.444Z,101902.28
2018-01-29T06:14:33.925Z,101899.19
2018-01-29T06:17:01.366Z,101903.63
2018-01-29T06:19:28.824Z,101901.41
2018-01-29T06:21:56.269Z,101904.50
2018-01-29T06:24:24.006Z,101900.53
2018-01-29T06:26:51.445Z,101895.66
2018-01-29T06:29:18.901Z,101889.91
2018-01-29T06:31:46.365Z,101888.11
2018-01-29T06:34:13.813Z,101885.02
2018-01-29T06:36:41.490Z,101883.70
2018-01-29T06:39:08.935Z,101879.70
2018-01-29T06:41:36.373Z,101874.37
2018-01-29T06:44:03.949Z,101877.48
2018-01-29T06:46:31.390Z,101871.28
2018-01-29T06:48:59.157Z,101872.18
2018-01-29T06:51:26.609Z,101879.69
2018-01-29T06:53:54.041Z,101873.05
2018-01-29T06:56:21.568Z,101886.33
2018-01-29T06:58:49.088Z,101885.45
2018-01-29T07:01:16.561Z,101877.92
2018-01-29T07:03:44.001Z,101874.81
2018-01-29T07:06:11.441Z,101878.32
2018-01-29T07:08:38.912Z,101877.41
2018-01-29T07:11:06.401Z,101874.82
2018-01-29T07:13:34.211Z,101876.16
2018-01-29T07:16:01.652Z,101869.06
2018-01-29T07:18:29.088Z,101865.09
2018-01-29T07:20:56.545Z,101862.44
2018-01-29T07:23:23.988Z,101853.10
2018-01-29T07:25:51.637Z,101852.23
2018-01-29T07:28:19.081Z,101853.55
2018-01-29T07:30:46.524Z,101853.13
2018-01-29T07:33:13.984Z,101854.47
2018-01-29T07:35:41.462Z,101852.23
2018-01-29T07:38:08.940Z,101850.03
2018-01-29T07:40:36.383Z,101847.80
2018-01-29T07:43:03.850Z,101840.70
2018-01-29T07:45:31.323Z,101839.83
2018-01-29T07:47:58.774Z,101839.80
2018-01-29T07:50:26.282Z,101841.16
2018-01-29T07:52:53.729Z,101838.50
2018-01-29T07:55:21.194Z,101838.05
2018-01-29T07:57:49.514Z,101846.01
2018-01-29T08:00:16.966Z,101848.66
2018-01-29T08:02:44.458Z,101836.28
2018-01-29T08:05:11.920Z,101838.91
2018-01-29T08:07:39.370Z,101836.70
2018-01-29T08:10:06.847Z,101828.34
2018-01-29T08:12:34.302Z,101840.23
2018-01-29T08:15:01.803Z,101834.49
2018-01-29T08:17:29.246Z,101842.45
2018-01-29T08:19:56.707Z,101830.91
2018-01-29T08:22:24.190Z,101829.58
2018-01-29T08:24:51.754Z,101833.11
2018-01-29T08:27:19.502Z,101829.14
2018-01-29T08:29:46.958Z,101834.44
2018-01-29T08:32:15.275Z,101831.81
2018-01-29T08:34:42.742Z,101834.88
2018-01-29T08:37:10.798Z,101837.95
2018-01-29T08:39:38.295Z,101833.55
2018-01-29T08:42:05.758Z,101828.22
2018-01-29T08:44:33.210Z,101831.29
2018-01-29T08:47:00.686Z,101822.91
2018-01-29T08:49:28.336Z,101811.73
2018-01-29T08:51:56.006Z,101812.62
2018-01-29T08:54:23.466Z,101815.34
2018-01-29T08:56:50.918Z,101805.55
2018-01-29T08:59:18.409Z,101801.59
2018-01-29T09:01:45.875Z,101805.07
2018-01-29T09:04:13.591Z,101803.36
2018-01-29T09:06:41.043Z,101800.22
2018-01-29T09:09:08.490Z,101801.91
2018-01-29T09:11:35.970Z,101801.92
2018-01-29T09:14:03.419Z,101798.89
2018-01-29T09:16:31.194Z,101799.31
2018-01-29T09:18:58.739Z,101795.80
2018-01-29T09:21:26.186Z,101792.64
2018-01-29T09:23:53.666Z,101786.36
2018-01-29T09:26:21.126Z,101790.77
2018-01-29T09:28:48.743Z,101778.80
2018-01-29T09:31:16.210Z,101776.52
2018-01-29T09:33:43.669Z,101784.16
2018-01-29T09:36:11.154Z,101786.72
2018-01-29T09:38:38.606Z,101779.73
2018-01-29T09:41:06.190Z,101789.38
2018-01-29T09:43:33.642Z,101796.49
2018-01-29T09:46:01.139Z,101789.41
2018-01-29T09:48:28.639Z,101788.50
2018-01-29T09:50:56.094Z,101793.03
2018-01-29T09:53:23.575Z,101790.36
2018-01-29T09:55:51.031Z,101791.67
2018-01-29T09:58:18.499Z,101791.62
2018-01-29T10:00:45.961Z,101785.41
2018-01-29T10:03:13.433Z,101785.46
2018-01-29T10:05:40.908Z,101786.33
2018-01-29T10:08:08.357Z,101789.41
2018-01-29T10:10:35.797Z,101790.38
2018-01-29T10:13:03.265Z,101788.58
2018-01-29T10:15:30.708Z,101787.18
2018-01-29T10:17:58.177Z,101786.23
2018-01-29T10:20:25.620Z,101775.18
2018-01-29T10:22:53.080Z,101781.37
2018-01-29T10:25:20.536Z,101778.73
2018-01-29T10:27:48.894Z,101772.52
2018-01-29T10:30:30.272Z,101770.99
2018-01-29T10:33:01.881Z,101766.73
2018-01-29T10:35:30.385Z,101760.05
2018-01-29T10:37:59.789Z,101765.70
2018-01-29T10:40:33.045Z,101756.45
2018-01-29T10:43:00.485Z,101758.19
2018-01-29T10:45:28.044Z,101747.02
2018-01-29T10:47:55.617Z,101743.09
2018-01-29T10:50:24.700Z,101737.83
2018-01-29T10:52:55.421Z,101741.67
2018-01-29T10:55:32.784Z,101735.43
2018-01-29T10:58:01.800Z,101743.50
2018-01-29T11:00:39.843Z,101735.55
2018-01-29T11:03:07.310Z,101749.72
2018-01-29T11:05:49.201Z,101739.47
2018-01-29T11:08:18.046Z,101721.09
2018-01-29T11:10:45.533Z,101720.40
2018-01-29T11:13:13.805Z,101712.75
2018-01-29T11:15:43.182Z,101719.08
2018-01-29T11:18:17.662Z,101722.11
2018-01-29T11:20:46.013Z,101715.06
2018-01-29T11:23:13.460Z,101717.75
2018-01-29T11:25:40.940Z,101709.70
2018-01-29T11:28:08.405Z,101702.59
2018-01-29T11:30:36.741Z,101699.56
2018-01-29T11:33:04.329Z,101708.00
2018-01-29T11:35:33.299Z,101705.64
2018-01-29T11:38:00.746Z,101690.86
2018-01-29T11:40:31.292Z,101696.31
2018-01-29T11:42:58.732Z,101685.97
2018-01-29T11:45:26.320Z,101687.47
2018-01-29T11:47:53.761Z,101683.91
2018-01-29T11:50:21.201Z,101677.63
2018-01-29T11:52:48.799Z,101676.77
2018-01-29T11:55:16.247Z,101674.44
2018-01-29T11:57:43.808Z,101668.36
2018-01-29T12:00:11.248Z,101659.86
2018-01-29T12:02:38.694Z,101655.40
2018-01-29T12:05:06.982Z,101651.36
2018-01-29T12:07:34.428Z,101650.96
2018-01-29T12:10:02.134Z,101647.52
2018-01-29T12:12:29.605Z,101644.92
2018-01-29T12:14:57.041Z,101640.53
2018-01-29T12:17:24.496Z,101630.68
2018-01-29T12:19:51.953Z,101625.81
2018-01-29T12:22:19.422Z,101620.77
2018-01-29T12:24:46.961Z,101608.91
2018-01-29T12:27:14.412Z,101610.59
2018-01-29T12:29:41.873Z,101599.98
2018-01-29T12:32:09.317Z,101598.04
2018-01-29T12:34:37.193Z,101592.70
2018-01-29T12:37:04.632Z,101590.38
2018-01-29T12:39:32.076Z,101585.81
2018-01-29T12:41:59.584Z,101585.45
2018-01-29T12:44:27.033Z,101585.47
2018-01-29T12:46:54.511Z,101580.56
2018-01-29T12:49:21.970Z,101577.92
2018-01-29T12:51:49.446Z,101568.41
2018-01-29T12:54:16.886Z,101562.70
2018-01-29T12:56:44.365Z,101565.60
2018-01-29T12:59:11.811Z,101559.83
2018-01-29T13:01:39.286Z,101554.01
2018-01-29T13:04:06.733Z,101556.25
2018-01-29T13:06:34.191Z,101546.48
2018-01-29T13:09:01.652Z,101547.72
2018-01-29T13:11:29.109Z,101543.48
2018-01-29T13:13:56.580Z,101543.84
2018-01-29T13:16:24.018Z,101539.81
2018-01-29T13:18:51.485Z,101533.54
2018-01-29T13:21:18.976Z,101535.53
2018-01-29T13:23:46.424Z,101523.66
2018-01-29T13:26:13.938Z,101521.23
2018-01-29T13:28:41.377Z,101509.74
2018-01-29T13:31:08.837Z,101510.72
2018-01-29T13:33:36.289Z,101514.73
2018-01-29T13:36:03.756Z,101510.16
2018-01-29T13:38:31.204Z,101508.45
2018-01-29T13:40:58.691Z,101508.39
2018-01-29T13:43:26.132Z,101505.31
2018-01-29T13:45:53.676Z,101499.73
2018-01-29T13:48:21.113Z,101489.62
2018-01-29T13:50:48.569Z,101492.27
2018-01-29T13:53:16.065Z,101490.48
2018-01-29T13:55:43.505Z,101499.88
2018-01-29T13:58:11.178Z,101498.09
2018-01-29T14:00:38.636Z,101484.91
2018-01-29T14:03:06.120Z,101486.27
2018-01-29T14:05:33.561Z,101484.17
2018-01-29T14:08:01.033Z,101481.53
2018-01-29T14:10:28.920Z,101481.84
2018-01-29T14:12:56.384Z,101484.17
2018-01-29T14:15:23.873Z,101476.72
2018-01-29T14:17:51.606Z,101472.92
2018-01-29T14:20:19.048Z,101478.22
2018-01-29T14:22:46.763Z,101469.80
2018-01-29T14:25:14.232Z,101463.72
2018-01-29T14:27:41.679Z,101463.66
2018-01-29T14:30:09.156Z,101453.56
2018-01-29T14:32:36.638Z,101454.11
2018-01-29T14:35:04.371Z,101443.88
2018-01-29T14:37:31.838Z,101442.85
2018-01-29T14:39:59.320Z,101440.15
2018-01-29T14:42:26.777Z,101441.91
2018-01-29T14:44:54.424Z,101438.35
2018-01-29T14:47:23.118Z,101441.25
2018-01-29T14:49:50.609Z,101437.28
2018-01-29T14:52:18.398Z,101437.72
2018-01-29T14:54:45.841Z,101442.97
2018-01-29T14:57:13.284Z,101434.48
2018-01-29T14:59:40.797Z,101440.73
2018-01-29T15:02:08.245Z,101431.82
2018-01-29T15:04:35.929Z,101429.90
2018-01-29T15:07:03.371Z,101427.03
2018-01-29T15:09:30.829Z,101427.00
2018-01-29T15:11:58.302Z,101424.63
2018-01-29T15:14:25.761Z,101416.86
2018-01-29T15:16:53.420Z,101417.72
2018-01-29T15:19:20.857Z,101416.63
2018-01-29T15:21:48.296Z,101415.84
2018-01-29T15:24:15.757Z,101416.20
2018-01-29T15:26:43.249Z,101417.03
2018-01-29T15:29:11.005Z,101417.50
2018-01-29T15:31:38.448Z,101417.30
2018-01-29T15:34:05.907Z,101423.00
2018-01-29T15:36:33.400Z,101416.08
2018-01-29T15:39:00.897Z,101415.14
2018-01-29T15:41:29.065Z,101412.50
2018-01-29T15:43:56.508Z,101407.62
2018-01-29T15:46:25.729Z,101398.64
2018-01-29T15:48:54.109Z,101413.45
2018-01-29T15:51:21.580Z,101412.31
2018-01-29T15:53:51.397Z,101422.17
2018-01-29T15:56:34.386Z,101417.27
2018-01-29T15:59:01.965Z,101416.74
2018-01-29T16:01:44.602Z,101421.28
2018-01-29T16:04:13.546Z,101418.23
2018-01-29T16:06:42.488Z,101421.20
2018-01-29T16:09:12.732Z,101427.44
2018-01-29T16:11:44.985Z,101416.06
2018-01-29T16:14:18.168Z,101422.20
2018-01-29T16:16:49.657Z,101421.02
2018-01-29T16:19:18.484Z,101418.51
2018-01-29T16:21:46.118Z,101411.83
2018-01-29T16:24:21.871Z,101429.56
2018-01-29T16:26:55.893Z,101426.95
2018-01-29T16:29:24.925Z,101432.20
2018-01-29T16:31:55.109Z,101425.09
2018-01-29T16:34:23.969Z,101424.23
2018-01-29T16:36:51.438Z,101425.14
2018-01-29T16:39:19.101Z,101428.98
2018-01-29T16:41:46.581Z,101423.17
2018-01-29T16:44:17.602Z,101421.08
2018-01-29T16:46:50.089Z,101430.41
2018-01-29T16:49:17.538Z,101432.38
2018-01-29T16:51:45.097Z,101431.58
2018-01-29T16:54:14.633Z,101427.82
2018-01-29T16:56:42.157Z,101431.42
2018-01-29T16:59:09.647Z,101422.58
2018-01-29T17:01:39.775Z,101413.22
2018-01-29T17:04:07.285Z,101422.88
2018-01-29T17:06:36.071Z,101424.80
2018-01-29T17:09:07.418Z,101412.39
2018-01-29T17:11:38.554Z,101409.20
2018-01-29T17:14:06.014Z,101423.01
2018-01-29T17:16:33.627Z,101415.84
2018-01-29T17:19:01.699Z,101406.13
2018-01-29T17:21:32.049Z,101408.42
2018-01-29T17:24:00.195Z,101410.70
2018-01-29T17:26:27.676Z,101406.26
2018-01-29T17:28:56.006Z,101395.12
2018-01-29T17:31:23.449Z,101399.58
2018-01-29T17:33:58.062Z,101396.95
2018-01-29T17:36:25.528Z,101389.28
2018-01-29T17:38:52.989Z,101403.55
2018-01-29T17:41:29.373Z,101399.02
2018-01-29T17:43:58.070Z,101404.43
2018-01-29T17:46:26.296Z,101409.41
2018-01-29T17:48:54.636Z,101416.09
2018-01-29T17:51:29.762Z,101428.48
2018-01-29T17:53:59.192Z,101424.39
2018-01-29T17:56:30.102Z,101425.29
2018-01-29T17:58:57.621Z,101424.75
2018-01-29T18:01:25.085Z,101420.34
2018-01-29T18:03:52.691Z,101427.02
2018-01-29T18:06:20.179Z,101415.97
2018-01-29T18:08:47.627Z,101397.12
2018-01-29T18:11:15.137Z,101382.07
2018-01-29T18:13:43.562Z,101375.52
2018-01-29T18:16:12.785Z,101370.25
2018-01-29T18:18:46.119Z,101371.48
2018-01-29T18:21:13.561Z,101365.36
2018-01-29T18:23:45.130Z,101357.59
2018-01-29T18:26:19.949Z,101358.41
2018-01-29T18:28:48.433Z,101361.19
2018-01-29T18:31:25.818Z,101373.55
2018-01-29T18:33:57.686Z,101382.78
2018-01-29T18:36:35.043Z,101375.25
2018-01-29T18:39:02.637Z,101388.00
2018-01-29T18:41:32.417Z,101375.17
2018-01-29T18:43:59.984Z,101378.41
2018-01-29T18:46:31.508Z,101375.27
2018-01-29T18:48:58.959Z,101382.50
2018-01-29T18:51:33.533Z,101386.37
2018-01-29T18:54:03.218Z,101387.75
2018-01-29T18:56:34.864Z,101395.69
2018-01-29T18:59:02.410Z,101390.20
2018-01-29T19:01:29.951Z,101393.34
2018-01-29T19:03:58.657Z,101395.91
2018-01-29T19:06:26.468Z,101404.36
2018-01-29T19:08:56.129Z,101406.05
2018-01-29T19:11:23.775Z,101392.16
2018-01-29T19:13:56.196Z,101397.06
2018-01-29T19:16:27.933Z,101388.88
2018-01-29T19:19:06.298Z,101404.36
2018-01-29T19:21:38.421Z,101407.63
2018-01-29T19:24:08.773Z,101411.84
2018-01-29T19:26:38.737Z,101411.42
2018-01-29T19:29:09.108Z,101415.59
2018-01-29T19:31:38.173Z,101422.29
2018-01-29T19:34:10.504Z,101422.78
2018-01-29T19:36:40.826Z,101419.84
2018-01-29T19:39:08.273Z,101423.92
2018-01-29T19:41:35.748Z,101414.17
2018-01-29T19:44:03.209Z,101425.28
2018-01-29T19:46:30.678Z,101422.72
2018-01-29T19:48:58.121Z,101423.46
2018-01-29T19:51:25.613Z,101427.34
2018-01-29T19:53:53.061Z,101436.34
2018-01-29T19:56:20.503Z,101454.09
2018-01-29T19:58:47.985Z,101461.39
2018-01-29T20:01:15.429Z,101462.26
2018-01-29T20:03:42.910Z,101453.52
2018-01-29T20:06:10.389Z,101458.73
2018-01-29T20:08:37.824Z,101459.23
2018-01-29T20:11:05.293Z,101461.22
2018-01-29T20:13:32.805Z,101469.19
2018-01-29T20:16:00.288Z,101458.08
2018-01-29T20:18:27.745Z,101464.84
2018-01-29T20:20:55.890Z,101464.31
2018-01-29T20:23:23.349Z,101471.92
2018-01-29T20:25:50.847Z,101459.91
2018-01-29T20:28:18.285Z,101472.31
2018-01-29T20:30:45.728Z,101463.98
2018-01-29T20:33:13.216Z,101459.00
2018-01-29T20:35:40.656Z,101452.39
2018-01-29T20:38:08.126Z,101455.02
2018-01-29T20:40:35.615Z,101450.28
2018-01-29T20:43:04.569Z,101456.42
2018-01-29T20:45:35.569Z,101462.11
2018-01-29T20:48:03.037Z,101456.84
2018-01-29T20:50:40.794Z,101467.87
2018-01-29T20:53:08.433Z,101467.52
2018-01-29T20:55:35.872Z,101466.63
2018-01-29T20:58:18.233Z,101466.66
2018-01-29T21:00:55.660Z,101464.02
2018-01-29T21:03:23.140Z,101444.45
2018-01-29T21:05:50.586Z,101457.45
2018-01-29T21:08:21.462Z,101453.42
2018-01-29T21:10:53.130Z,101464.05
2018-01-29T21:13:23.542Z,101466.25
2018-01-29T21:15:55.302Z,101474.34
2018-01-29T21:18:27.818Z,101467.72
2018-01-29T21:20:56.537Z,101463.70
2018-01-29T21:23:23.993Z,101461.91
2018-01-29T21:25:54.366Z,101466.81
2018-01-29T21:28:26.588Z,101470.82
2018-01-29T21:31:11.346Z,101465.12
2018-01-29T21:33:42.489Z,101467.33
2018-01-29T21:36:21.589Z,101461.55
2018-01-29T21:38:58.140Z,101455.83
2018-01-29T21:41:25.728Z,101455.38
2018-01-29T21:43:53.201Z,101451.40
2018-01-29T21:46:20.647Z,101449.64
2018-01-29T21:48:48.096Z,101454.11
2018-01-29T21:51:15.556Z,101459.43
2018-01-29T21:53:43.016Z,101473.92
2018-01-29T21:56:10.633Z,101475.35
2018-01-29T21:58:38.107Z,101481.59
2018-01-29T22:01:05.568Z,101487.79
2018-01-29T22:03:33.045Z,101486.88
2018-01-29T22:06:00.506Z,101485.57
2018-01-29T22:08:27.979Z,101496.22
2018-01-29T22:10:55.435Z,101505.05
2018-01-29T22:13:22.937Z,101501.08
2018-01-29T22:15:50.384Z,101502.77
2018-01-29T22:18:17.828Z,101513.46
2018-01-29T22:20:45.286Z,101518.29
2018-01-29T22:23:12.731Z,101523.19
2018-01-29T22:25:40.381Z,101522.27
2018-01-29T22:28:07.856Z,101525.80
2018-01-29T22:30:35.539Z,101527.95
2018-01-29T22:33:03.025Z,101525.70
2018-01-29T22:35:30.465Z,101532.39
2018-01-29T22:37:58.169Z,101530.16
2018-01-29T22:40:25.621Z,101532.72
2018-01-29T22:42:59.233Z,101535.88
2018-01-29T22:45:32.652Z,101540.30
2018-01-29T22:48:03.109Z,101543.51
2018-01-29T22:50:46.063Z,101554.93
2018-01-29T22:53:13.696Z,101558.03
2018-01-29T22:55:41.191Z,101554.84
2018-01-29T22:58:08.628Z,101556.70
2018-01-29T23:00:43.580Z,101556.16
2018-01-29T23:03:25.772Z,101567.16
2018-01-29T23:06:00.261Z,101578.32
2018-01-29T23:08:35.742Z,101580.73
2018-01-29T23:11:14.311Z,101599.80
2018-01-29T23:13:43.448Z,101604.66
2018-01-29T23:16:20.949Z,101601.92
2018-01-29T23:18:49.249Z,101620.88
2018-01-29T23:21:19.611Z,101627.57
2018-01-29T23:23:54.283Z,101632.46
2018-01-29T23:26:28.624Z,101641.80
2018-01-29T23:28:57.476Z,101649.38
2018-01-29T23:31:24.953Z,101651.19
2018-01-29T23:34:03.350Z,101653.36
2018-01-29T23:36:54.017Z,101657.28
2018-01-29T23:39:21.814Z,101657.40
2018-01-29T23:41:53.747Z,101659.59
2018-01-29T23:44:26.509Z,101653.02
2018-01-29T23:46:53.948Z,101666.66
2018-01-29T23:49:27.103Z,101661.89
2018-01-29T23:52:01.082Z,101664.97
2018-01-29T23:54:31.740Z,101661.89
2018-01-29T23:57:02.536Z,101664.98
2018-01-29T23:59:37.512Z,101680.89
